createdAt,value
2022-08-18T00:01:11.563Z,47.22
2022-08-18T00:03:55.568Z,47.18
2022-08-18T00:06:28.532Z,47.09
2022-08-18T00:08:59.697Z,47.54
2022-08-18T00:11:40.506Z,47.91
2022-08-18T00:14:13.747Z,47.89
2022-08-18T00:16:50.047Z,48.04
2022-08-18T00:19:18.207Z,48.11
2022-08-18T00:21:46.416Z,48.19
2022-08-18T00:24:16.108Z,48.10
2022-08-18T00:26:44.482Z,48.43
2022-08-18T00:29:16.766Z,48.49
2022-08-18T00:31:44.972Z,48.58
2022-08-18T00:34:13.325Z,48.74
2022-08-18T00:36:41.485Z,48.66
2022-08-18T00:39:09.675Z,49.13
2022-08-18T00:41:39.355Z,49.22
2022-08-18T00:44:07.527Z,49.35
2022-08-18T00:46:38.529Z,49.49
2022-08-18T00:49:07.362Z,49.44
2022-08-18T00:51:42.778Z,49.48
2022-08-18T00:54:17.997Z,49.62
2022-08-18T00:56:50.414Z,49.59
2022-08-18T00:59:26.016Z,49.58
2022-08-18T01:01:56.087Z,49.49
2022-08-18T01:04:29.520Z,49.87
2022-08-18T01:07:01.979Z,49.74
2022-08-18T01:09:31.353Z,50.01
2022-08-18T01:12:01.035Z,49.91
2022-08-18T01:14:49.451Z,50.36
2022-08-18T01:17:35.036Z,50.22
2022-08-18T01:20:21.332Z,50.56
2022-08-18T01:23:00.903Z,50.66
2022-08-18T01:25:46.783Z,50.65
2022-08-18T01:28:18.550Z,50.51
2022-08-18T01:30:49.967Z,50.66
2022-08-18T01:33:18.959Z,50.82
2022-08-18T01:35:49.971Z,50.92
2022-08-18T01:38:22.455Z,50.94
2022-08-18T01:41:25.259Z,50.97
2022-08-18T01:43:41.621Z,50.98
2022-08-18T01:46:10.469Z,51.00
2022-08-18T01:48:39.215Z,51.02
2022-08-18T01:51:09.656Z,50.97
2022-08-18T01:53:39.349Z,51.00
2022-08-18T01:56:08.938Z,51.01
2022-08-18T01:58:38.378Z,51.09
2022-08-18T02:01:07.177Z,51.26
2022-08-18T02:03:38.857Z,51.09
2022-08-18T02:06:11.210Z,51.35
2022-08-18T02:08:46.348Z,51.41
2022-08-18T02:11:18.008Z,51.55
2022-08-18T02:13:46.209Z,51.43
2022-08-18T02:16:14.757Z,51.63
2022-08-18T02:18:47.508Z,51.55
2022-08-18T02:21:20.574Z,51.63
2022-08-18T02:23:53.391Z,51.63
2022-08-18T02:26:23.477Z,51.97
2022-08-18T02:28:51.679Z,51.89
2022-08-18T02:31:23.251Z,52.21
2022-08-18T02:33:52.731Z,52.09
2022-08-18T02:36:25.269Z,52.05
2022-08-18T02:38:59.524Z,52.34
2022-08-18T02:41:30.071Z,52.27
2022-08-18T02:43:58.899Z,52.42
2022-08-18T02:46:29.754Z,52.42
2022-08-18T02:48:58.690Z,52.09
2022-08-18T02:51:26.866Z,52.52
2022-08-18T02:53:59.389Z,52.33
2022-08-18T02:56:32.722Z,52.61
2022-08-18T02:59:12.199Z,52.37
2022-08-18T03:01:44.028Z,52.02
2022-08-18T03:04:28.684Z,51.96
2022-08-18T03:06:58.930Z,52.00
2022-08-18T03:09:29.453Z,52.44
2022-08-18T03:11:58.449Z,52.20
2022-08-18T03:14:27.084Z,52.16
2022-08-18T03:16:55.597Z,52.56
2022-08-18T03:19:24.951Z,52.49
2022-08-18T03:21:53.346Z,52.47
2022-08-18T03:24:23.758Z,52.48
2022-08-18T03:26:55.822Z,52.50
2022-08-18T03:29:27.909Z,52.39
2022-08-18T03:31:59.403Z,52.44
2022-08-18T03:34:27.570Z,52.64
2022-08-18T03:36:55.750Z,52.51
2022-08-18T03:39:25.139Z,53.04
2022-08-18T03:41:58.598Z,52.77
2022-08-18T03:44:32.875Z,52.78
2022-08-18T03:47:03.266Z,52.81
2022-08-18T03:49:32.427Z,52.83
2022-08-18T03:52:01.562Z,52.58
2022-08-18T03:54:32.450Z,53.13
2022-08-18T03:57:02.171Z,52.97
2022-08-18T03:59:32.227Z,52.88
2022-08-18T04:02:00.834Z,52.96
2022-08-18T04:04:29.986Z,53.25
2022-08-18T04:07:00.642Z,52.92
2022-08-18T04:09:31.002Z,53.09
2022-08-18T04:12:00.508Z,52.89
2022-08-18T04:14:31.078Z,53.03
2022-08-18T04:16:59.645Z,53.11
2022-08-18T04:19:28.345Z,52.90
2022-08-18T04:21:58.174Z,52.89
2022-08-18T04:24:31.041Z,52.69
2022-08-18T04:27:02.031Z,52.56
2022-08-18T04:29:32.161Z,52.75
2022-08-18T04:32:02.900Z,52.67
2022-08-18T04:34:31.093Z,52.53
2022-08-18T04:36:59.369Z,52.32
2022-08-18T04:39:28.180Z,52.46
2022-08-18T04:41:56.854Z,52.48
2022-08-18T04:44:25.176Z,52.37
2022-08-18T04:46:56.240Z,52.49
2022-08-18T04:49:27.824Z,52.82
2022-08-18T04:52:36.525Z,52.47
2022-08-18T04:55:03.873Z,52.71
2022-08-18T04:57:34.871Z,52.98
2022-08-18T05:00:13.950Z,52.50
2022-08-18T05:02:44.114Z,52.42
2022-08-18T05:05:12.545Z,52.41
2022-08-18T05:07:46.402Z,52.46
2022-08-18T05:10:17.919Z,52.28
2022-08-18T05:12:49.025Z,52.35
2022-08-18T05:15:17.850Z,52.31
2022-08-18T05:17:47.627Z,52.17
2022-08-18T05:20:19.147Z,52.38
2022-08-18T05:22:48.074Z,52.35
2022-08-18T05:25:16.376Z,52.24
2022-08-18T05:27:45.095Z,52.36
2022-08-18T05:30:15.552Z,52.42
2022-08-18T05:32:49.626Z,52.41
2022-08-18T05:35:25.179Z,52.24
2022-08-18T05:38:17.129Z,52.09
2022-08-18T05:40:47.238Z,52.17
2022-08-18T05:43:16.533Z,52.06
2022-08-18T05:45:44.883Z,52.08
2022-08-18T05:48:13.025Z,52.02
2022-08-18T05:50:42.968Z,51.70
2022-08-18T05:53:15.897Z,52.15
2022-08-18T05:56:07.604Z,52.02
2022-08-18T05:58:40.368Z,51.91
2022-08-18T06:01:15.057Z,52.34
2022-08-18T06:03:49.482Z,52.25
2022-08-18T06:06:23.425Z,51.98
2022-08-18T06:09:00.096Z,52.07
2022-08-18T06:11:28.368Z,52.12
2022-08-18T06:13:59.987Z,52.11
2022-08-18T06:16:48.601Z,51.90
2022-08-18T06:19:39.357Z,52.09
2022-08-18T06:22:19.329Z,52.15
2022-08-18T06:24:56.655Z,52.02
2022-08-18T06:27:40.052Z,51.87
2022-08-18T06:30:15.771Z,52.03
2022-08-18T06:32:58.009Z,51.83
2022-08-18T06:35:34.812Z,51.77
2022-08-18T06:38:34.085Z,51.75
2022-08-18T06:41:05.414Z,51.46
2022-08-18T06:43:35.569Z,51.46
2022-08-18T06:46:09.690Z,51.52
2022-08-18T06:48:45.731Z,51.40
2022-08-18T06:51:19.944Z,51.92
2022-08-18T06:53:57.844Z,51.81
2022-08-18T06:56:29.921Z,51.51
2022-08-18T06:59:23.138Z,51.69
2022-08-18T07:01:54.896Z,51.14
2022-08-18T07:04:40.281Z,51.46
2022-08-18T07:07:40.263Z,51.12
2022-08-18T07:10:33.390Z,51.05
2022-08-18T07:13:22.789Z,50.78
2022-08-18T07:15:52.028Z,51.03
2022-08-18T07:18:26.674Z,50.81
2022-08-18T07:20:59.062Z,50.49
2022-08-18T07:23:34.536Z,50.82
2022-08-18T07:26:09.876Z,50.94
2022-08-18T07:28:41.904Z,50.94
2022-08-18T07:31:30.968Z,51.23
2022-08-18T07:34:04.732Z,51.07
2022-08-18T07:36:36.769Z,51.06
2022-08-18T07:39:10.721Z,50.92
2022-08-18T07:41:44.294Z,50.49
2022-08-18T07:44:19.852Z,49.45
2022-08-18T07:46:55.692Z,48.88
2022-08-18T07:49:27.610Z,48.61
2022-08-18T07:52:02.403Z,48.01
2022-08-18T07:54:54.675Z,47.61
2022-08-18T07:57:41.965Z,47.61
2022-08-18T08:00:41.465Z,47.83
2022-08-18T08:03:27.193Z,47.30
2022-08-18T08:06:02.216Z,47.55
2022-08-18T08:08:35.778Z,47.39
2022-08-18T08:11:14.553Z,47.20
2022-08-18T08:13:56.716Z,47.13
2022-08-18T08:16:36.585Z,47.06
2022-08-18T08:19:13.500Z,46.92
2022-08-18T08:21:52.949Z,47.20
2022-08-18T08:24:30.841Z,47.02
2022-08-18T08:27:03.473Z,46.92
2022-08-18T08:29:42.559Z,46.70
2022-08-18T08:32:29.213Z,47.39
2022-08-18T08:35:01.167Z,47.30
2022-08-18T08:37:46.039Z,47.67
2022-08-18T08:40:20.904Z,47.81
2022-08-18T08:42:56.710Z,47.67
2022-08-18T08:45:29.808Z,47.44
2022-08-18T08:48:08.750Z,47.83
2022-08-18T08:50:46.397Z,47.73
2022-08-18T08:53:20.431Z,47.45
2022-08-18T08:55:52.290Z,47.57
2022-08-18T08:58:26.188Z,47.73
2022-08-18T09:00:57.881Z,47.77
2022-08-18T09:03:41.383Z,47.30
2022-08-18T09:06:25.430Z,47.03
2022-08-18T09:09:12.560Z,47.33
2022-08-18T09:12:03.660Z,48.16
2022-08-18T09:15:02.203Z,48.24
2022-08-18T09:17:56.951Z,47.40
2022-08-18T09:20:54.798Z,47.65
2022-08-18T09:23:27.679Z,47.34
2022-08-18T09:25:58.834Z,46.93
2022-08-18T09:28:56.521Z,47.01
2022-08-18T09:31:25.945Z,46.59
2022-08-18T09:34:34.936Z,46.31
2022-08-18T09:37:13.750Z,45.95
2022-08-18T09:40:12.573Z,45.46
2022-08-18T09:42:49.935Z,45.54
2022-08-18T09:45:57.806Z,45.68
2022-08-18T09:48:32.294Z,45.56
2022-08-18T09:54:27.495Z,44.91
2022-08-18T09:57:08.847Z,44.34
2022-08-18T10:00:24.294Z,44.41
2022-08-18T10:03:14.815Z,44.17
2022-08-18T10:06:15.769Z,43.69
2022-08-18T10:09:27.196Z,43.49
2022-08-18T10:12:29.656Z,43.06
2022-08-18T10:15:33.070Z,43.00
2022-08-18T10:18:27.207Z,42.92
2022-08-18T10:21:04.217Z,43.01
2022-08-18T10:24:35.056Z,43.01
2022-08-18T10:27:08.302Z,42.63
2022-08-18T10:29:57.494Z,42.65
2022-08-18T10:35:58.980Z,42.69
2022-08-18T10:38:47.854Z,42.67
2022-08-18T10:41:45.338Z,42.29
2022-08-18T10:44:28.901Z,42.27
2022-08-18T10:46:59.828Z,42.66
2022-08-18T10:49:32.132Z,42.68
2022-08-18T10:52:22.948Z,43.01
2022-08-18T10:55:10.396Z,43.32
2022-08-18T10:57:56.844Z,43.21
2022-08-18T11:00:37.964Z,43.45
2022-08-18T11:03:50.133Z,43.82
2022-08-18T11:09:03.491Z,43.83
2022-08-18T11:11:41.453Z,44.12
2022-08-18T11:14:44.176Z,44.13
2022-08-18T11:17:21.279Z,43.97
2022-08-18T11:19:51.172Z,44.21
2022-08-18T11:22:32.324Z,43.90
2022-08-18T11:25:03.373Z,43.90
2022-08-18T11:27:36.160Z,43.72
2022-08-18T11:30:07.301Z,43.44
2022-08-18T11:32:39.372Z,43.49
2022-08-18T11:35:18.651Z,43.44
2022-08-18T11:37:53.165Z,43.42
2022-08-18T11:41:08.967Z,43.67
2022-08-18T11:43:21.438Z,44.18
2022-08-18T11:45:59.233Z,44.20
2022-08-18T11:48:51.885Z,44.55
2022-08-18T11:51:25.462Z,44.60
2022-08-18T11:53:59.900Z,44.81
2022-08-18T11:56:32.340Z,45.41
2022-08-18T11:59:06.352Z,45.27
2022-08-18T12:01:42.530Z,45.72
2022-08-18T12:04:25.733Z,45.69
2022-08-18T12:07:01.787Z,45.99
2022-08-18T12:12:34.980Z,46.24
2022-08-18T12:15:25.706Z,46.02
2022-08-18T12:17:59.806Z,45.99
2022-08-18T12:20:29.044Z,45.94
2022-08-18T12:22:58.537Z,45.81
2022-08-18T12:25:26.815Z,45.77
2022-08-18T12:27:56.250Z,46.40
2022-08-18T12:30:24.381Z,46.27
2022-08-18T12:35:44.884Z,46.57
2022-08-18T12:38:17.900Z,47.08
2022-08-18T12:40:46.476Z,47.45
2022-08-18T12:43:14.585Z,47.75
2022-08-18T12:45:43.251Z,47.73
2022-08-18T12:48:12.046Z,48.02
2022-08-18T12:50:54.495Z,48.13
2022-08-18T12:56:21.869Z,48.33
2022-08-18T12:58:50.373Z,48.68
2022-08-18T13:01:19.615Z,48.73
2022-08-18T13:03:52.502Z,49.10
2022-08-18T13:06:29.713Z,49.54
2022-08-18T13:08:59.937Z,49.66
2022-08-18T13:11:28.027Z,50.04
2022-08-18T13:13:57.819Z,50.32
2022-08-18T13:16:53.327Z,50.40
2022-08-18T13:19:23.159Z,50.77
2022-08-18T13:21:52.280Z,50.69
2022-08-18T13:24:22.311Z,50.96
2022-08-18T13:26:51.699Z,51.04
2022-08-18T13:29:21.234Z,51.05
2022-08-18T13:31:55.903Z,51.09
2022-08-18T13:34:27.676Z,51.44
2022-08-18T13:36:58.800Z,51.47
2022-08-18T13:39:34.087Z,51.43
2022-08-18T13:42:26.730Z,51.60
2022-08-18T13:44:53.276Z,51.81
2022-08-18T13:47:22.308Z,51.71
2022-08-18T13:49:57.976Z,51.60
2022-08-18T13:52:34.431Z,51.46
2022-08-18T13:55:11.706Z,51.88
2022-08-18T13:57:42.169Z,51.76
2022-08-18T14:00:18.423Z,51.96
2022-08-18T14:02:58.956Z,51.81
2022-08-18T14:05:50.927Z,52.37
2022-08-18T14:08:19.048Z,52.50
2022-08-18T14:10:54.666Z,52.74
2022-08-18T14:13:25.196Z,52.50
2022-08-18T14:15:56.669Z,52.69
2022-08-18T14:18:28.603Z,53.24
2022-08-18T14:21:16.511Z,53.37
2022-08-18T14:24:01.408Z,53.84
2022-08-18T14:26:49.942Z,53.47
2022-08-18T14:29:45.665Z,53.80
2022-08-18T14:32:08.709Z,53.87
2022-08-18T14:34:42.381Z,53.99
2022-08-18T14:37:19.318Z,53.97
2022-08-18T14:39:50.342Z,54.22
2022-08-18T14:42:41.148Z,54.24
2022-08-18T14:45:17.934Z,54.45
2022-08-18T14:47:56.812Z,54.16
2022-08-18T14:50:26.835Z,54.09
2022-08-18T14:52:55.378Z,54.44
2022-08-18T14:55:23.928Z,54.41
2022-08-18T14:57:54.203Z,54.31
2022-08-18T15:00:22.934Z,54.55
2022-08-18T15:02:52.537Z,54.96
2022-08-18T15:05:24.499Z,55.22
2022-08-18T15:07:53.962Z,55.17
2022-08-18T15:10:23.455Z,55.24
2022-08-18T15:12:58.678Z,55.55
2022-08-18T15:15:50.840Z,55.27
2022-08-18T15:18:22.832Z,55.39
2022-08-18T15:21:10.248Z,55.08
2022-08-18T15:24:04.882Z,55.43
2022-08-18T15:26:51.895Z,55.58
2022-08-18T15:29:29.398Z,55.40
2022-08-18T15:32:02.281Z,55.30
2022-08-18T15:34:33.392Z,55.24
2022-08-18T15:37:16.074Z,55.24
2022-08-18T15:39:51.694Z,55.45
2022-08-18T15:42:24.377Z,55.29
2022-08-18T15:44:54.482Z,55.25
2022-08-18T15:47:25.150Z,55.27
2022-08-18T15:49:54.773Z,54.92
2022-08-18T15:52:24.595Z,54.89
2022-08-18T15:54:57.012Z,54.72
2022-08-18T15:57:38.463Z,54.78
2022-08-18T16:00:12.235Z,54.90
2022-08-18T16:02:48.337Z,54.85
2022-08-18T16:05:18.234Z,54.89
2022-08-18T16:07:47.654Z,55.20
2022-08-18T16:10:17.762Z,54.97
2022-08-18T16:12:46.448Z,55.19
2022-08-18T16:15:19.412Z,55.12
2022-08-18T16:17:51.148Z,55.08
2022-08-18T16:20:21.130Z,55.01
2022-08-18T16:22:49.343Z,55.09
2022-08-18T16:25:17.991Z,55.51
2022-08-18T16:27:47.942Z,55.30
2022-08-18T16:30:19.767Z,54.90
2022-08-18T16:32:48.580Z,54.65
2022-08-18T16:35:17.259Z,54.65
2022-08-18T16:37:46.814Z,54.62
2022-08-18T16:40:15.522Z,54.82
2022-08-18T16:42:43.750Z,54.75
2022-08-18T16:45:15.558Z,54.68
2022-08-18T16:47:45.251Z,54.84
2022-08-18T16:50:15.442Z,54.56
2022-08-18T16:52:43.686Z,54.85
2022-08-18T16:55:14.004Z,54.57
2022-08-18T16:58:01.871Z,54.86
2022-08-18T17:00:54.799Z,55.04
2022-08-18T17:03:45.131Z,55.38
2022-08-18T17:06:15.649Z,55.37
2022-08-18T17:08:46.247Z,55.35
2022-08-18T17:11:17.159Z,55.33
2022-08-18T17:13:47.179Z,55.44
2022-08-18T17:16:16.265Z,55.62
2022-08-18T17:18:46.575Z,55.85
2022-08-18T17:21:18.550Z,55.65
2022-08-18T17:23:47.252Z,55.76
2022-08-18T17:26:34.130Z,56.03
2022-08-18T17:29:07.223Z,55.77
2022-08-18T17:31:36.904Z,55.65
2022-08-18T17:34:10.122Z,55.95
2022-08-18T17:36:53.193Z,55.72
2022-08-18T17:39:36.377Z,56.06
2022-08-18T17:42:22.802Z,56.10
2022-08-18T17:44:52.591Z,56.28
2022-08-18T17:47:26.788Z,56.06
2022-08-18T17:50:27.907Z,56.43
2022-08-18T17:53:05.455Z,56.78
2022-08-18T17:55:40.527Z,56.57
2022-08-18T17:58:16.087Z,56.70
2022-08-18T18:00:45.318Z,56.78
2022-08-18T18:03:13.724Z,56.85
2022-08-18T18:05:48.721Z,56.90
2022-08-18T18:08:17.641Z,57.14
2022-08-18T18:11:05.433Z,57.13
2022-08-18T18:13:35.198Z,56.96
2022-08-18T18:16:21.731Z,57.26
2022-08-18T18:19:01.181Z,57.22
2022-08-18T18:21:57.651Z,57.24
2022-08-18T18:24:31.471Z,57.44
2022-08-18T18:27:00.117Z,57.72
2022-08-18T18:29:35.685Z,57.52
2022-08-18T18:32:08.788Z,58.05
2022-08-18T18:34:40.858Z,57.66
2022-08-18T18:37:27.433Z,57.72
2022-08-18T18:39:57.671Z,57.84
2022-08-18T18:42:29.704Z,57.79
2022-08-18T18:44:59.792Z,57.76
2022-08-18T18:50:55.592Z,58.16
2022-08-18T18:53:49.975Z,57.97
2022-08-18T18:56:27.222Z,57.87
2022-08-18T18:59:05.407Z,58.14
2022-08-18T19:01:43.502Z,58.27
2022-08-18T19:04:18.659Z,58.15
2022-08-18T19:06:55.480Z,58.12
2022-08-18T19:09:32.751Z,58.58
2022-08-18T19:12:12.377Z,58.47
2022-08-18T19:14:57.640Z,59.00
2022-08-18T19:17:35.421Z,59.01
2022-08-18T19:20:08.268Z,59.10
2022-08-18T19:22:43.420Z,59.04
2022-08-18T19:25:19.491Z,59.24
2022-08-18T19:27:52.716Z,59.40
2022-08-18T19:30:23.027Z,59.22
2022-08-18T19:32:53.738Z,59.50
2022-08-18T19:35:35.162Z,59.56
2022-08-18T19:38:15.449Z,59.63
2022-08-18T19:40:50.765Z,59.29
2022-08-18T19:43:26.772Z,59.50
2022-08-18T19:46:03.494Z,59.44
2022-08-18T19:48:39.558Z,58.99
2022-08-18T19:51:14.769Z,59.30
2022-08-18T19:54:05.650Z,59.82
2022-08-18T19:56:50.230Z,59.74
2022-08-18T19:59:42.692Z,59.60
2022-08-18T20:02:28.965Z,59.80
2022-08-18T20:05:11.503Z,59.61
2022-08-18T20:08:06.926Z,59.31
2022-08-18T20:10:59.279Z,60.09
2022-08-18T20:13:36.692Z,59.86
2022-08-18T20:16:34.592Z,59.96
2022-08-18T20:19:41.207Z,59.95
2022-08-18T20:22:16.304Z,60.12
2022-08-18T20:24:53.384Z,60.09
2022-08-18T20:27:34.972Z,60.26
2022-08-18T20:30:26.734Z,60.13
2022-08-18T20:33:20.908Z,60.39
2022-08-18T20:35:59.260Z,60.73
2022-08-18T20:38:35.323Z,60.56
2022-08-18T20:41:42.452Z,60.67
2022-08-18T20:44:45.361Z,60.53
2022-08-18T20:47:43.441Z,60.79
2022-08-18T20:50:39.425Z,60.69
2022-08-18T20:53:22.474Z,60.49
2022-08-18T20:55:58.988Z,60.45
2022-08-18T20:58:33.810Z,60.74
2022-08-18T21:01:02.610Z,60.68
2022-08-18T21:03:41.522Z,60.74
2022-08-18T21:06:11.196Z,60.90
2022-08-18T21:08:46.030Z,60.72
2022-08-18T21:11:29.801Z,60.81
2022-08-18T21:14:04.075Z,60.92
2022-08-18T21:16:38.926Z,61.05
2022-08-18T21:19:14.129Z,61.20
2022-08-18T21:21:50.119Z,61.16
2022-08-18T21:24:28.830Z,61.32
2022-08-18T21:27:05.279Z,61.12
2022-08-18T21:29:47.122Z,60.93
2022-08-18T21:32:20.921Z,61.03
2022-08-18T21:34:56.272Z,61.07
2022-08-18T21:37:24.936Z,61.39
2022-08-18T21:39:57.857Z,61.27
2022-08-18T21:42:31.654Z,61.44
2022-08-18T21:45:04.383Z,61.51
2022-08-18T21:47:35.132Z,61.40
2022-08-18T21:50:11.042Z,61.77
2022-08-18T21:53:02.375Z,61.97
2022-08-18T21:55:34.119Z,61.92
2022-08-18T21:58:09.244Z,62.11
2022-08-18T22:00:39.535Z,61.95
2022-08-18T22:03:26.914Z,61.75
2022-08-18T22:06:02.822Z,62.07
2022-08-18T22:08:35.057Z,62.09
2022-08-18T22:11:57.234Z,61.99
2022-08-18T22:14:53.568Z,61.87
2022-08-18T22:17:33.553Z,62.12
2022-08-18T22:20:47.736Z,62.24
2022-08-18T22:23:54.988Z,62.40
2022-08-18T22:26:27.622Z,61.87
2022-08-18T22:29:02.454Z,62.04
2022-08-18T22:31:33.213Z,62.15
2022-08-18T22:34:04.987Z,62.36
2022-08-18T22:36:37.453Z,62.18
2022-08-18T22:39:12.489Z,62.15
2022-08-18T22:41:41.958Z,62.40
2022-08-18T22:44:10.588Z,62.24
2022-08-18T22:46:38.853Z,62.15
2022-08-18T22:49:07.073Z,62.47
2022-08-18T22:51:37.418Z,62.66
2022-08-18T22:54:08.477Z,62.57
2022-08-18T22:56:38.619Z,62.62
2022-08-18T22:59:15.819Z,62.58
2022-08-18T23:01:50.223Z,62.59
2022-08-18T23:04:20.180Z,62.65
2022-08-18T23:06:52.112Z,62.33
2022-08-18T23:09:22.989Z,62.29
2022-08-18T23:11:54.325Z,62.85
2022-08-18T23:14:22.526Z,62.34
2022-08-18T23:16:51.032Z,62.45
2022-08-18T23:19:21.344Z,62.72
2022-08-18T23:21:50.033Z,62.83
2022-08-18T23:24:19.829Z,62.82
2022-08-18T23:26:49.410Z,62.61
2022-08-18T23:29:19.961Z,62.70
2022-08-18T23:31:49.714Z,62.36
2022-08-18T23:34:19.737Z,62.57
2022-08-18T23:36:55.570Z,62.72
2022-08-18T23:39:24.585Z,62.78
2022-08-18T23:41:53.238Z,62.82
2022-08-18T23:44:23.808Z,62.54
2022-08-18T23:46:58.132Z,62.53
2022-08-18T23:49:26.902Z,62.90
2022-08-18T23:51:56.318Z,63.16
2022-08-18T23:54:29.457Z,62.90
2022-08-18T23:56:58.381Z,62.78
2022-08-18T23:59:29.395Z,62.84
